Time;durP1;ratioP1;P1;durP2;ratioP2;P2;SDS_P1;SDS_P2;PMS_P1;PMS_P2;Temp;Humidity;BMP_temperature;BMP_pressure;BME280_temperature;BME280_humidity;BME280_pressure;Samples;Min_cycle;Max_cycle;Signal;HPM_P1;HPM_P2
2023/03/29 00:01:05;;;;;;;2.35;2.10;;;;;;;;;;5010088;28;20030;-60
2023/03/29 00:03:32;;;;;;;3.40;2.17;;;;;;;;;;5005961;28;20038;-60
2023/03/29 00:06:02;;;;;;;3.85;2.50;;;;;;;;;;5009258;28;20045;-60
2023/03/29 00:08:31;;;;;;;3.50;2.67;;;;;;;;;;5009657;28;20045;-60
2023/03/29 00:10:58;;;;;;;2.70;2.17;;;;;;;;;;5010742;28;20049;-59
2023/03/29 00:13:27;;;;;;;4.03;2.05;;;;;;;;;;5009023;28;20030;-60
2023/03/29 00:15:55;;;;;;;3.70;2.50;;;;;;;;;;5008820;28;20404;-60
2023/03/29 00:18:21;;;;;;;4.18;2.70;;;;;;;;;;5008399;28;20276;-60
2023/03/29 00:20:57;;;;;;;4.50;2.33;;;;;;;;;;5005254;28;20057;-60
2023/03/29 00:23:24;;;;;;;3.85;2.75;;;;;;;;;;5007217;28;20022;-60
2023/03/29 00:25:54;;;;;;;5.18;2.60;;;;;;;;;;5010000;28;20053;-60
2023/03/29 00:28:21;;;;;;;3.78;2.72;;;;;;;;;;5006748;28;20025;-60
2023/03/29 00:30:49;;;;;;;3.72;2.75;;;;;;;;;;5008976;28;20030;-60
2023/03/29 00:33:17;;;;;;;3.78;2.40;;;;;;;;;;5006550;28;20042;-60
2023/03/29 00:35:45;;;;;;;5.00;2.70;;;;;;;;;;5008796;28;20395;-60
2023/03/29 00:38:11;;;;;;;3.45;2.80;;;;;;;;;;5008354;28;20041;-60
2023/03/29 00:40:45;;;;;;;7.13;2.92;;;;;;;;;;5004454;28;20030;-60
2023/03/29 00:43:13;;;;;;;4.18;2.83;;;;;;;;;;5007164;28;20034;-60
2023/03/29 00:45:39;;;;;;;4.10;2.70;;;;;;;;;;5007989;28;20025;-60
2023/03/29 00:48:18;;;;;;;4.70;2.58;;;;;;;;;;5008162;28;20271;-60
2023/03/29 00:51:01;;;;;;;3.10;2.80;;;;;;;;;;5009070;28;20040;-60
2023/03/29 00:53:47;;;;;;;3.47;2.67;;;;;;;;;;5011595;28;20398;-60
2023/03/29 00:56:23;;;;;;;4.40;2.70;;;;;;;;;;5009588;28;20030;-60
2023/03/29 00:59:05;;;;;;;3.90;2.90;;;;;;;;;;5006886;28;20034;-60
2023/03/29 01:02:00;;;;;;;4.65;2.75;;;;;;;;;;5006831;28;20545;-58
2023/03/29 01:04:46;;;;;;;3.90;2.85;;;;;;;;;;5010487;28;20049;-59
2023/03/29 01:07:34;;;;;;;5.30;2.83;;;;;;;;;;5008445;28;20041;-60
2023/03/29 01:10:11;;;;;;;4.55;3.08;;;;;;;;;;5008251;28;20034;-59
2023/03/29 01:12:44;;;;;;;5.95;3.58;;;;;;;;;;5009082;28;20033;-60
2023/03/29 01:15:12;;;;;;;5.63;3.30;;;;;;;;;;5008853;28;20038;-60
2023/03/29 01:17:42;;;;;;;5.10;3.25;;;;;;;;;;5009282;28;20056;-60
2023/03/29 01:20:32;;;;;;;4.40;3.10;;;;;;;;;;4992156;28;20057;-61
2023/03/29 01:22:59;;;;;;;;;;;;;;;;;;5009386;28;20484;-59
2023/03/29 01:25:39;;;;;;;6.63;3.55;;;;;;;;;;5010285;28;20395;-59
2023/03/29 01:28:13;;;;;;;4.03;2.75;;;;;;;;;;5008719;28;20037;-60
2023/03/29 01:30:47;;;;;;;4.88;2.85;;;;;;;;;;5008415;28;20052;-60
2023/03/29 01:33:34;;;;;;;6.05;3.25;;;;;;;;;;5007370;28;20057;-59
2023/03/29 01:36:40;;;;;;;5.63;3.30;;;;;;;;;;5037048;28;20052;-60
2023/03/29 01:39:06;;;;;;;4.30;3.10;;;;;;;;;;5002816;28;20046;-60
2023/03/29 01:41:32;;;;;;;5.43;3.35;;;;;;;;;;5004751;28;20479;-59
2023/03/29 01:44:06;;;;;;;4.43;3.30;;;;;;;;;;5005414;28;20041;-59
2023/03/29 01:46:42;;;;;;;5.20;3.50;;;;;;;;;;5003258;28;20493;-59
2023/03/29 01:49:21;;;;;;;5.95;3.53;;;;;;;;;;5008570;28;20061;-59
2023/03/29 01:51:59;;;;;;;5.47;3.67;;;;;;;;;;5007958;28;20045;-60
2023/03/29 01:54:39;;;;;;;5.72;3.80;;;;;;;;;;5009079;28;20037;-60
2023/03/29 01:57:09;;;;;;;5.43;3.58;;;;;;;;;;5008525;28;20034;-60
2023/03/29 01:59:39;;;;;;;9.70;3.95;;;;;;;;;;5003120;28;20042;-59
2023/03/29 02:02:11;;;;;;;5.20;3.63;;;;;;;;;;5003573;28;20038;-59
2023/03/29 02:04:44;;;;;;;4.13;3.15;;;;;;;;;;5007087;28;20045;-59
2023/03/29 02:07:15;;;;;;;7.03;3.65;;;;;;;;;;5008481;28;20033;-60
2023/03/29 02:09:41;;;;;;;5.43;3.10;;;;;;;;;;5008546;28;20037;-59
2023/03/29 02:12:10;;;;;;;5.40;3.03;;;;;;;;;;5008598;28;20048;-59
2023/03/29 02:14:37;;;;;;;5.40;2.83;;;;;;;;;;5009006;28;20045;-60
2023/03/29 02:17:22;;;;;;;2.58;2.33;;;;;;;;;;5007311;28;20030;-60
2023/03/29 02:19:58;;;;;;;4.15;2.90;;;;;;;;;;5008009;28;20423;-59
2023/03/29 02:22:35;;;;;;;3.38;2.50;;;;;;;;;;5003980;28;20054;-59
2023/03/29 02:25:05;;;;;;;2.53;2.22;;;;;;;;;;5004160;28;20044;-59
2023/03/29 02:27:31;;;;;;;6.13;2.55;;;;;;;;;;5005308;28;20409;-60
2023/03/29 02:29:58;;;;;;;4.35;2.80;;;;;;;;;;5007080;28;20034;-62
2023/03/29 02:32:32;;;;;;;4.80;2.90;;;;;;;;;;5004864;28;20061;-61
2023/03/29 02:35:09;;;;;;;3.15;2.75;;;;;;;;;;5005112;28;20042;-60
2023/03/29 02:37:39;;;;;;;4.13;3.05;;;;;;;;;;5005477;28;20422;-60
2023/03/29 02:40:11;;;;;;;4.15;3.38;;;;;;;;;;5002806;28;20042;-59
2023/03/29 02:42:44;;;;;;;5.55;2.78;;;;;;;;;;5007583;28;20041;-60
2023/03/29 02:45:14;;;;;;;3.83;2.53;;;;;;;;;;5003928;28;20033;-59
2023/03/29 02:47:46;;;;;;;3.65;2.72;;;;;;;;;;5007525;28;20029;-60
2023/03/29 02:50:13;;;;;;;4.05;2.50;;;;;;;;;;5006803;28;20030;-60
2023/03/29 02:52:44;;;;;;;2.97;2.65;;;;;;;;;;5005460;28;20057;-59
2023/03/29 02:55:15;;;;;;;3.33;2.30;;;;;;;;;;5007153;28;20050;-60
2023/03/29 02:57:42;;;;;;;5.18;2.63;;;;;;;;;;5008111;28;20042;-59
2023/03/29 03:00:10;;;;;;;2.75;2.33;;;;;;;;;;5005240;28;20407;-60
2023/03/29 03:02:36;;;;;;;2.65;2.20;;;;;;;;;;5005423;28;20034;-59
2023/03/29 03:05:04;;;;;;;3.45;2.67;;;;;;;;;;5001226;28;20054;-60
2023/03/29 03:07:32;;;;;;;2.95;2.30;;;;;;;;;;5007623;28;20041;-59
2023/03/29 03:09:58;;;;;;;4.03;2.40;;;;;;;;;;5007542;28;20034;-60
2023/03/29 03:12:25;;;;;;;3.88;2.05;;;;;;;;;;5004142;28;20042;-60
2023/03/29 03:14:51;;;;;;;3.30;1.98;;;;;;;;;;5008166;28;20470;-58
2023/03/29 03:17:17;;;;;;;3.05;2.15;;;;;;;;;;5005430;28;20042;-60
2023/03/29 03:19:46;;;;;;;3.75;1.90;;;;;;;;;;5006568;28;20046;-61
2023/03/29 03:22:12;;;;;;;4.63;2.03;;;;;;;;;;5002312;28;20057;-59
2023/03/29 03:24:38;;;;;;;2.40;1.80;;;;;;;;;;5006165;28;20057;-59
2023/03/29 03:27:05;;;;;;;4.43;1.92;;;;;;;;;;5004709;28;20496;-59
2023/03/29 03:29:31;;;;;;;4.82;1.67;;;;;;;;;;5006527;28;20474;-59
2023/03/29 03:32:23;;;;;;;1.95;1.75;;;;;;;;;;4981994;28;20113;-59
2023/03/29 03:35:10;;;;;;;3.17;1.70;;;;;;;;;;5001187;28;20475;-60
2023/03/29 03:37:37;;;;;;;4.22;1.63;;;;;;;;;;5002516;28;20049;-59
2023/03/29 03:40:10;;;;;;;1.77;1.38;;;;;;;;;;5000622;28;20666;-59
2023/03/29 03:42:38;;;;;;;1.85;1.40;;;;;;;;;;5003829;28;20046;-60
2023/03/29 03:45:05;;;;;;;1.30;1.20;;;;;;;;;;5003755;28;20427;-60
2023/03/29 03:47:50;;;;;;;2.20;1.50;;;;;;;;;;5006759;28;20038;-60
2023/03/29 03:50:29;;;;;;;2.67;1.70;;;;;;;;;;5007153;28;20042;-60
2023/03/29 03:52:55;;;;;;;2.33;1.55;;;;;;;;;;5002037;28;20045;-60
2023/03/29 03:55:22;;;;;;;2.38;1.55;;;;;;;;;;5008332;28;20385;-60
2023/03/29 03:58:18;;;;;;;2.03;1.45;;;;;;;;;;5002758;28;20057;-59
2023/03/29 04:00:47;;;;;;;2.42;1.50;;;;;;;;;;5004585;28;20070;-60
2023/03/29 04:03:36;;;;;;;3.00;1.33;;;;;;;;;;5009254;28;20045;-59
2023/03/29 04:06:03;;;;;;;2.88;1.60;;;;;;;;;;5009174;28;20039;-60
2023/03/29 04:08:41;;;;;;;3.47;1.75;;;;;;;;;;5010219;28;20034;-60
2023/03/29 04:11:16;;;;;;;2.65;1.65;;;;;;;;;;5013650;28;20053;-61
2023/03/29 04:13:42;;;;;;;1.55;1.30;;;;;;;;;;5006584;28;20042;-60
2023/03/29 04:16:26;;;;;;;1.65;1.17;;;;;;;;;;5008057;28;20045;-59
2023/03/29 04:18:53;;;;;;;4.57;1.48;;;;;;;;;;5010331;28;20056;-60
2023/03/29 04:21:22;;;;;;;5.88;2.67;;;;;;;;;;5009905;28;20037;-59
2023/03/29 04:23:48;;;;;;;6.50;3.35;;;;;;;;;;5010740;28;20026;-60
2023/03/29 04:26:16;;;;;;;10.73;2.78;;;;;;;;;;5009066;28;20057;-60
2023/03/29 04:28:48;;;;;;;4.93;2.42;;;;;;;;;;5009272;28;20029;-60
2023/03/29 04:31:20;;;;;;;4.75;2.22;;;;;;;;;;5005344;28;20248;-60
2023/03/29 04:34:05;;;;;;;3.92;2.20;;;;;;;;;;5008257;28;20034;-60
2023/03/29 04:36:33;;;;;;;4.47;2.22;;;;;;;;;;5007424;28;20048;-61
2023/03/29 04:39:00;;;;;;;4.20;2.30;;;;;;;;;;5005159;28;20038;-60
2023/03/29 04:41:27;;;;;;;3.88;2.80;;;;;;;;;;5007690;28;20038;-59
2023/03/29 04:44:02;;;;;;;4.03;2.22;;;;;;;;;;5005989;28;20458;-61
2023/03/29 04:46:31;;;;;;;3.83;2.28;;;;;;;;;;5009826;28;20064;-60
2023/03/29 04:49:23;;;;;;;4.95;2.30;;;;;;;;;;5005960;28;20041;-60
2023/03/29 04:51:52;;;;;;;7.18;2.47;;;;;;;;;;5009876;28;20046;-60
2023/03/29 04:54:20;;;;;;;;;;;;;;;;;;5009599;28;20500;-60
2023/03/29 04:57:13;;;;;;;3.13;1.95;;;;;;;;;;5008762;28;20529;-61
2023/03/29 04:59:55;;;;;;;4.07;2.70;;;;;;;;;;5008713;28;20049;-61
2023/03/29 05:02:45;;;;;;;2.30;1.83;;;;;;;;;;5013015;28;20046;-57
2023/03/29 05:05:12;;;;;;;3.95;2.13;;;;;;;;;;5015368;28;20041;-56
2023/03/29 05:07:39;;;;;;;3.80;2.08;;;;;;;;;;5009386;28;20042;-60
2023/03/29 05:10:07;;;;;;;4.20;2.40;;;;;;;;;;5006594;28;20030;-61
2023/03/29 05:12:33;;;;;;;3.70;2.35;;;;;;;;;;5007311;28;20038;-59
2023/03/29 05:15:00;;;;;;;3.20;2.10;;;;;;;;;;4972167;28;20347;-60
2023/03/29 05:17:27;;;;;;;3.50;2.50;;;;;;;;;;5005963;28;20061;-59
2023/03/29 05:20:00;;;;;;;6.38;2.80;;;;;;;;;;5009513;28;20459;-60
2023/03/29 05:22:28;;;;;;;5.00;2.58;;;;;;;;;;5003273;28;20031;-60
2023/03/29 05:24:56;;;;;;;7.03;2.97;;;;;;;;;;4992568;28;20042;-59
2023/03/29 05:27:22;;;;;;;3.65;2.60;;;;;;;;;;5009152;28;20049;-60
2023/03/29 05:30:00;;;;;;;6.82;2.65;;;;;;;;;;5002802;28;20427;-60
2023/03/29 05:32:47;;;;;;;6.20;2.90;;;;;;;;;;5004629;28;20045;-61
2023/03/29 05:35:15;;;;;;;6.23;2.47;;;;;;;;;;5008859;28;20041;-60
2023/03/29 05:37:46;;;;;;;14.57;2.60;;;;;;;;;;4991694;28;20087;-61
2023/03/29 05:40:12;;;;;;;4.25;2.75;;;;;;;;;;5020350;28;20038;-59
2023/03/29 05:43:01;;;;;;;3.78;2.30;;;;;;;;;;5015715;28;20491;-59
2023/03/29 05:45:28;;;;;;;2.78;2.05;;;;;;;;;;5008101;28;20026;-60
2023/03/29 05:47:56;;;;;;;5.07;2.42;;;;;;;;;;5000384;28;20049;-60
2023/03/29 05:50:22;;;;;;;4.03;2.17;;;;;;;;;;5004237;28;20044;-59
2023/03/29 05:52:49;;;;;;;6.38;1.92;;;;;;;;;;5008180;28;20050;-60
2023/03/29 05:55:17;;;;;;;3.28;2.00;;;;;;;;;;5007744;28;20034;-60
2023/03/29 05:57:43;;;;;;;4.43;2.17;;;;;;;;;;5005654;28;20034;-60
2023/03/29 06:00:22;;;;;;;3.33;2.00;;;;;;;;;;5004807;28;20045;-60
2023/03/29 06:02:52;;;;;;;6.47;3.30;;;;;;;;;;5004592;28;20404;-61
2023/03/29 06:05:19;;;;;;;5.53;3.20;;;;;;;;;;5006058;28;20506;-60
2023/03/29 06:07:57;;;;;;;5.15;2.53;;;;;;;;;;4991027;28;20049;-60
2023/03/29 06:10:42;;;;;;;2.47;2.00;;;;;;;;;;5008721;28;20053;-60
2023/03/29 06:13:28;;;;;;;5.82;2.20;;;;;;;;;;5007507;28;20046;-60
2023/03/29 06:15:55;;;;;;;6.72;2.53;;;;;;;;;;5006745;28;20037;-61
2023/03/29 06:18:22;;;;;;;6.35;2.42;;;;;;;;;;5004423;28;20050;-60
2023/03/29 06:20:51;;;;;;;5.53;2.03;;;;;;;;;;5007255;28;20053;-60
2023/03/29 06:23:20;;;;;;;3.30;1.50;;;;;;;;;;5009361;28;20061;-60
2023/03/29 06:25:46;;;;;;;2.05;1.73;;;;;;;;;;5007728;28;20034;-60
2023/03/29 06:28:13;;;;;;;6.15;2.05;;;;;;;;;;5007585;28;20415;-60
2023/03/29 06:30:40;;;;;;;2.90;1.50;;;;;;;;;;5007729;28;20071;-60
2023/03/29 06:33:08;;;;;;;2.47;1.70;;;;;;;;;;5003363;28;20042;-59
2023/03/29 06:35:57;;;;;;;4.45;2.30;;;;;;;;;;5009833;28;20062;-60
2023/03/29 06:38:27;;;;;;;5.80;2.28;;;;;;;;;;5006633;28;20033;-60
2023/03/29 06:41:31;;;;;;;8.73;3.88;;;;;;;;;;5031646;28;20033;-60
2023/03/29 06:44:07;;;;;;;4.60;1.95;;;;;;;;;;5025353;28;20041;-59
2023/03/29 06:46:42;;;;;;;3.22;1.95;;;;;;;;;;5008391;28;20052;-60
2023/03/29 06:49:08;;;;;;;3.67;1.92;;;;;;;;;;4990108;28;20042;-60
2023/03/29 06:51:45;;;;;;;3.88;1.85;;;;;;;;;;5005219;28;20046;-60
2023/03/29 06:54:12;;;;;;;5.90;2.70;;;;;;;;;;5006381;28;20042;-61
2023/03/29 06:56:46;;;;;;;3.45;2.22;;;;;;;;;;5004232;28;20035;-61
2023/03/29 06:59:15;;;;;;;3.47;1.70;;;;;;;;;;5000698;28;20065;-60
2023/03/29 07:02:06;;;;;;;3.17;1.85;;;;;;;;;;5005080;28;20052;-59
2023/03/29 07:04:55;;;;;;;2.10;1.60;;;;;;;;;;5002138;28;20030;-59
2023/03/29 07:07:42;;;;;;;2.97;1.83;;;;;;;;;;5005886;28;20053;-60
2023/03/29 07:10:20;;;;;;;2.75;1.80;;;;;;;;;;5003777;28;20034;-60
2023/03/29 07:13:07;;;;;;;5.53;1.90;;;;;;;;;;5005595;28;20045;-59
2023/03/29 07:15:34;;;;;;;5.05;1.95;;;;;;;;;;5003944;28;20528;-59
2023/03/29 07:18:17;;;;;;;4.70;2.72;;;;;;;;;;4989972;28;20029;-60
2023/03/29 07:20:43;;;;;;;4.53;2.90;;;;;;;;;;5004640;28;20586;-60
2023/03/29 07:23:11;;;;;;;8.20;2.95;;;;;;;;;;5006392;28;20046;-61
2023/03/29 07:25:39;;;;;;;4.65;2.67;;;;;;;;;;5006565;28;20029;-61
2023/03/29 07:28:06;;;;;;;5.45;2.42;;;;;;;;;;4999750;28;20037;-60
2023/03/29 07:30:33;;;;;;;3.03;1.83;;;;;;;;;;5003894;28;20368;-61
2023/03/29 07:33:14;;;;;;;3.03;1.90;;;;;;;;;;5000391;28;20068;-60
2023/03/29 07:35:57;;;;;;;2.50;1.83;;;;;;;;;;5001881;28;20100;-60
2023/03/29 07:38:25;;;;;;;4.65;2.08;;;;;;;;;;5003575;28;20447;-60
2023/03/29 07:40:57;;;;;;;5.65;2.70;;;;;;;;;;5007881;28;20054;-58
2023/03/29 07:43:50;;;;;;;2.97;2.40;;;;;;;;;;5008636;28;20492;-60
2023/03/29 07:46:22;;;;;;;3.20;2.53;;;;;;;;;;5010334;28;20048;-59
2023/03/29 07:48:50;;;;;;;6.22;2.70;;;;;;;;;;5008879;28;20091;-60
2023/03/29 07:51:16;;;;;;;5.97;2.55;;;;;;;;;;5004106;28;20038;-60
2023/03/29 07:53:52;;;;;;;3.58;2.20;;;;;;;;;;5004552;28;20483;-60
2023/03/29 07:56:41;;;;;;;6.38;3.22;;;;;;;;;;5007463;28;20453;-60
2023/03/29 07:59:16;;;;;;;5.13;2.28;;;;;;;;;;5008791;28;20076;-60
2023/03/29 08:01:44;;;;;;;5.95;3.00;;;;;;;;;;5008134;28;20042;-60
2023/03/29 08:04:33;;;;;;;3.10;2.22;;;;;;;;;;5004738;28;20396;-60
2023/03/29 08:07:18;;;;;;;3.72;2.33;;;;;;;;;;5007759;28;20033;-60
2023/03/29 08:10:10;;;;;;;3.60;2.45;;;;;;;;;;5004130;28;20429;-60
2023/03/29 08:12:56;;;;;;;3.63;2.47;;;;;;;;;;5007528;28;20310;-59
2023/03/29 08:15:55;;;;;;;4.35;2.30;;;;;;;;;;5019328;28;20050;-60
2023/03/29 08:18:36;;;;;;;3.55;2.28;;;;;;;;;;5008681;28;20069;-60
2023/03/29 08:21:03;;;;;;;3.25;2.30;;;;;;;;;;5004489;28;20148;-60
2023/03/29 08:23:30;;;;;;;3.10;2.33;;;;;;;;;;5007080;28;20049;-60
2023/03/29 08:26:07;;;;;;;3.58;2.45;;;;;;;;;;5004986;28;20042;-60
2023/03/29 08:28:34;;;;;;;5.90;2.15;;;;;;;;;;5004389;28;20068;-59
2023/03/29 08:31:00;;;;;;;2.85;2.35;;;;;;;;;;5004302;28;20045;-59
2023/03/29 08:33:26;;;;;;;6.70;3.08;;;;;;;;;;5004572;28;20046;-61
2023/03/29 08:36:12;;;;;;;6.40;3.47;;;;;;;;;;5008593;28;20041;-60
2023/03/29 08:38:39;;;;;;;3.90;2.47;;;;;;;;;;5002925;28;20049;-60
2023/03/29 08:41:23;;;;;;;8.98;3.28;;;;;;;;;;5007432;28;20037;-60
2023/03/29 08:43:57;;;;;;;5.85;3.70;;;;;;;;;;5006697;28;20046;-60
2023/03/29 08:46:48;;;;;;;;;;;;;;;;;;5009730;28;20033;-59
2023/03/29 08:49:22;;;;;;;3.50;2.20;;;;;;;;;;5007256;28;19913;-60
2023/03/29 08:51:53;;;;;;;4.03;2.05;;;;;;;;;;5008201;28;20045;-60
2023/03/29 08:54:45;;;;;;;5.72;2.25;;;;;;;;;;5008093;28;20061;-60
2023/03/29 08:57:28;;;;;;;3.53;2.17;;;;;;;;;;5007051;28;20042;-60
2023/03/29 09:00:01;;;;;;;2.75;2.10;;;;;;;;;;5005451;28;20427;-60
2023/03/29 09:02:34;;;;;;;3.88;2.25;;;;;;;;;;5007406;28;20050;-60
2023/03/29 09:05:26;;;;;;;4.68;2.58;;;;;;;;;;5008257;28;20046;-59
2023/03/29 09:08:05;;;;;;;6.40;2.30;;;;;;;;;;5022204;28;20090;-60
2023/03/29 09:10:43;;;;;;;3.75;2.05;;;;;;;;;;4990865;28;20038;-60
2023/03/29 09:13:22;;;;;;;4.95;2.10;;;;;;;;;;5026292;28;20038;-60
2023/03/29 09:15:57;;;;;;;4.13;2.10;;;;;;;;;;4988412;28;20030;-60
2023/03/29 09:18:50;;;;;;;4.97;2.30;;;;;;;;;;5007845;28;20045;-59
2023/03/29 09:21:34;;;;;;;5.75;2.35;;;;;;;;;;5006387;28;20041;-60
2023/03/29 09:24:03;;;;;;;4.03;2.17;;;;;;;;;;4988493;28;20045;-60
2023/03/29 09:26:54;;;;;;;3.75;2.40;;;;;;;;;;5005559;28;20033;-59
2023/03/29 09:30:14;;;;;;;3.40;2.20;;;;;;;;;;5001454;28;20072;-60
2023/03/29 09:33:09;;;;;;;2.60;2.00;;;;;;;;;;5001578;28;20045;-60
2023/03/29 09:35:53;;;;;;;6.32;2.28;;;;;;;;;;5004962;28;20567;-60
2023/03/29 09:38:21;;;;;;;4.32;2.20;;;;;;;;;;5003436;28;20543;-60
2023/03/29 09:40:52;;;;;;;3.05;2.25;;;;;;;;;;5004249;28;20038;-59
2023/03/29 09:43:36;;;;;;;3.75;2.20;;;;;;;;;;5004765;28;20064;-60
2023/03/29 09:46:21;;;;;;;2.08;1.88;;;;;;;;;;5005243;28;20030;-60
2023/03/29 09:48:49;;;;;;;3.70;2.30;;;;;;;;;;5004765;28;20029;-59
2023/03/29 09:51:18;;;;;;;3.33;2.15;;;;;;;;;;4986558;28;20504;-59
2023/03/29 09:53:46;;;;;;;3.90;1.90;;;;;;;;;;5002208;28;20525;-59
2023/03/29 09:56:34;;;;;;;2.92;1.80;;;;;;;;;;4988017;28;20042;-59
2023/03/29 09:59:11;;;;;;;4.70;2.50;;;;;;;;;;5003950;28;20671;-59
2023/03/29 10:01:40;;;;;;;4.32;2.30;;;;;;;;;;5001195;28;20038;-59
2023/03/29 10:04:09;;;;;;;2.75;2.17;;;;;;;;;;5005565;28;20101;-60
2023/03/29 10:06:42;;;;;;;;;;;;;;;;;;5007646;28;20033;-59
2023/03/29 10:09:18;;;;;;;3.95;2.25;;;;;;;;;;5006973;28;20375;-60
2023/03/29 10:11:50;;;;;;;2.45;1.80;;;;;;;;;;5006363;28;20515;-60
2023/03/29 10:14:29;;;;;;;2.40;1.70;;;;;;;;;;5007986;28;20038;-60
2023/03/29 10:16:59;;;;;;;2.40;1.80;;;;;;;;;;5009400;28;20053;-59
2023/03/29 10:19:34;;;;;;;2.78;1.90;;;;;;;;;;4993634;28;20503;-60
2023/03/29 10:22:04;;;;;;;3.63;2.67;;;;;;;;;;5000353;28;20518;-60
2023/03/29 10:24:31;;;;;;;1.80;1.70;;;;;;;;;;5002423;28;20041;-59
2023/03/29 10:27:03;;;;;;;3.58;2.03;;;;;;;;;;5003463;28;20046;-60
2023/03/29 10:29:41;;;;;;;3.55;2.10;;;;;;;;;;5005994;28;20044;-60
2023/03/29 10:32:37;;;;;;;5.47;2.05;;;;;;;;;;5002578;28;20038;-59
2023/03/29 10:35:15;;;;;;;3.97;1.90;;;;;;;;;;4989797;28;20042;-60
2023/03/29 10:37:44;;;;;;;4.18;2.00;;;;;;;;;;5007496;28;20058;-61
2023/03/29 10:40:27;;;;;;;3.13;2.20;;;;;;;;;;5005748;28;20046;-60
2023/03/29 10:42:57;;;;;;;3.38;2.10;;;;;;;;;;4988466;28;20412;-59
2023/03/29 10:45:27;;;;;;;3.58;2.03;;;;;;;;;;5007203;28;20026;-60
2023/03/29 10:47:56;;;;;;;4.63;2.28;;;;;;;;;;5008144;28;20491;-60
2023/03/29 10:50:23;;;;;;;3.25;1.85;;;;;;;;;;5004491;28;20053;-60
2023/03/29 10:52:49;;;;;;;2.70;1.77;;;;;;;;;;5006122;28;20065;-59
2023/03/29 10:55:17;;;;;;;3.15;2.10;;;;;;;;;;5005925;28;20058;-60
2023/03/29 10:57:51;;;;;;;2.95;2.08;;;;;;;;;;5004530;28;20053;-60
2023/03/29 11:00:27;;;;;;;3.35;2.28;;;;;;;;;;5006688;28;20397;-60
2023/03/29 11:03:18;;;;;;;3.20;2.05;;;;;;;;;;5007485;28;20046;-60
2023/03/29 11:06:17;;;;;;;3.15;2.10;;;;;;;;;;5005718;28;20048;-60
2023/03/29 11:08:58;;;;;;;3.20;2.00;;;;;;;;;;5010268;28;20042;-60
2023/03/29 11:11:51;;;;;;;2.67;1.80;;;;;;;;;;5010308;28;20045;-60
2023/03/29 11:14:43;;;;;;;2.95;2.10;;;;;;;;;;5007899;28;20034;-60
2023/03/29 11:17:18;;;;;;;3.42;2.13;;;;;;;;;;5009143;28;20547;-60
2023/03/29 11:19:59;;;;;;;4.50;2.10;;;;;;;;;;5010334;28;20029;-60
2023/03/29 11:22:47;;;;;;;3.90;2.03;;;;;;;;;;5006538;28;20045;-58
2023/03/29 11:25:33;;;;;;;3.30;1.85;;;;;;;;;;5008361;28;20030;-60
2023/03/29 11:28:29;;;;;;;3.05;1.90;;;;;;;;;;5009151;28;20041;-60
2023/03/29 11:31:00;;;;;;;2.55;1.80;;;;;;;;;;5001868;28;20038;-60
2023/03/29 11:33:26;;;;;;;3.60;2.03;;;;;;;;;;5008923;28;20049;-60
2023/03/29 11:36:17;;;;;;;2.78;1.70;;;;;;;;;;5010336;28;20054;-59
2023/03/29 11:39:03;;;;;;;2.72;1.60;;;;;;;;;;5008911;28;20038;-60
2023/03/29 11:41:37;;;;;;;4.03;1.50;;;;;;;;;;5008613;28;20029;-60
2023/03/29 11:44:16;;;;;;;4.72;1.63;;;;;;;;;;5009474;28;20046;-60
2023/03/29 11:46:50;;;;;;;3.03;1.85;;;;;;;;;;5009121;28;20046;-61
2023/03/29 11:49:31;;;;;;;2.90;1.90;;;;;;;;;;5006770;28;20046;-60
2023/03/29 11:52:17;;;;;;;2.45;1.73;;;;;;;;;;5008323;28;20049;-61
2023/03/29 11:54:52;;;;;;;3.70;1.50;;;;;;;;;;5004723;28;20043;-60
2023/03/29 11:57:36;;;;;;;4.00;1.60;;;;;;;;;;5004925;28;20491;-60
2023/03/29 12:00:05;;;;;;;3.28;1.50;;;;;;;;;;5009282;28;20042;-60
2023/03/29 12:02:43;;;;;;;2.58;1.50;;;;;;;;;;5007664;28;20049;-60
2023/03/29 12:05:17;;;;;;;3.95;1.80;;;;;;;;;;5010313;28;20026;-59
2023/03/29 12:07:52;;;;;;;3.05;2.10;;;;;;;;;;5009254;28;20037;-60
2023/03/29 12:10:20;;;;;;;3.72;2.03;;;;;;;;;;5010554;28;20053;-60
2023/03/29 12:13:08;;;;;;;2.67;1.52;;;;;;;;;;5006126;28;20057;-60
2023/03/29 12:15:41;;;;;;;3.83;2.00;;;;;;;;;;5005172;28;20065;-61
2023/03/29 12:18:54;;;;;;;3.63;1.60;;;;;;;;;;5003031;28;20554;-59
2023/03/29 12:21:23;;;;;;;2.85;1.83;;;;;;;;;;5001657;28;20042;-60
2023/03/29 12:23:51;;;;;;;4.70;1.70;;;;;;;;;;5006848;28;20092;-61
2023/03/29 12:26:47;;;;;;;2.35;1.70;;;;;;;;;;5003689;28;20050;-60
2023/03/29 12:29:31;;;;;;;4.13;1.70;;;;;;;;;;5004194;28;20507;-61
2023/03/29 12:32:26;;;;;;;2.95;1.67;;;;;;;;;;5007192;28;20427;-60
2023/03/29 12:35:10;;;;;;;1.92;1.50;;;;;;;;;;5010161;28;20458;-60
2023/03/29 12:38:22;;;;;;;3.83;1.67;;;;;;;;;;4987436;28;20046;-61
2023/03/29 12:41:24;;;;;;;1.73;1.60;;;;;;;;;;5007677;28;20045;-61
2023/03/29 12:44:15;;;;;;;2.20;1.70;;;;;;;;;;5008655;28;20440;-59
2023/03/29 12:46:53;;;;;;;4.05;1.40;;;;;;;;;;5006348;28;20506;-61
2023/03/29 12:49:36;;;;;;;3.92;2.58;;;;;;;;;;5009474;28;20053;-61
2023/03/29 12:52:17;;;;;;;6.18;2.95;;;;;;;;;;5004781;28;20038;-61
2023/03/29 12:54:55;;;;;;;2.45;1.58;;;;;;;;;;5008084;28;20368;-60
2023/03/29 12:57:26;;;;;;;3.37;1.63;;;;;;;;;;5002550;28;20034;-60
2023/03/29 12:59:53;;;;;;;4.13;2.30;;;;;;;;;;5008267;28;20053;-59
2023/03/29 13:02:25;;;;;;;3.22;1.50;;;;;;;;;;5009264;28;20045;-59
2023/03/29 13:04:55;;;;;;;4.18;1.70;;;;;;;;;;5008516;28;20060;-61
2023/03/29 13:07:21;;;;;;;1.80;1.40;;;;;;;;;;5008346;28;20025;-61
2023/03/29 13:09:54;;;;;;;2.60;1.48;;;;;;;;;;5007411;28;20036;-61
2023/03/29 13:12:44;;;;;;;3.65;1.25;;;;;;;;;;5003868;28;20049;-60
2023/03/29 13:15:13;;;;;;;2.92;1.52;;;;;;;;;;5006164;28;20037;-61
2023/03/29 13:17:51;;;;;;;2.10;1.50;;;;;;;;;;5008440;28;20472;-60
2023/03/29 13:20:43;;;;;;;3.95;1.58;;;;;;;;;;5007755;28;20030;-60
2023/03/29 13:23:16;;;;;;;2.13;1.60;;;;;;;;;;5009072;28;20042;-61
2023/03/29 13:26:25;;;;;;;4.07;1.75;;;;;;;;;;5008309;28;20038;-60
2023/03/29 13:29:04;;;;;;;3.78;1.88;;;;;;;;;;4998649;28;20045;-61
2023/03/29 13:32:25;;;;;;;4.50;1.92;;;;;;;;;;5007473;28;20045;-61
2023/03/29 13:35:19;;;;;;;3.80;2.95;;;;;;;;;;5004335;28;20062;-60
2023/03/29 13:38:18;;;;;;;3.60;1.80;;;;;;;;;;5005788;28;21444;-61
2023/03/29 13:40:46;;;;;;;3.38;2.55;;;;;;;;;;5005740;28;20057;-60
2023/03/29 13:43:20;;;;;;;4.07;2.15;;;;;;;;;;5008829;28;20488;-61
2023/03/29 13:45:55;;;;;;;4.05;2.28;;;;;;;;;;5008743;28;20037;-60
2023/03/29 13:48:42;;;;;;;4.65;2.70;;;;;;;;;;5009051;28;20535;-60
2023/03/29 13:51:17;;;;;;;4.35;2.00;;;;;;;;;;5008678;28;20042;-61
2023/03/29 13:53:53;;;;;;;7.28;2.30;;;;;;;;;;5004405;28;20048;-62
2023/03/29 13:57:07;;;;;;;5.25;2.35;;;;;;;;;;5006877;28;20063;-62
2023/03/29 13:59:44;;;;;;;5.82;2.17;;;;;;;;;;4995417;28;20107;-60
2023/03/29 14:02:20;;;;;;;3.05;2.30;;;;;;;;;;5004018;28;20033;-61
2023/03/29 14:04:49;;;;;;;4.00;2.38;;;;;;;;;;5006549;28;20041;-62
2023/03/29 14:07:24;;;;;;;4.45;3.03;;;;;;;;;;5003925;28;20038;-61
2023/03/29 14:09:52;;;;;;;7.30;2.60;;;;;;;;;;5007484;28;20439;-61
2023/03/29 14:12:18;;;;;;;5.80;2.75;;;;;;;;;;5005376;28;20050;-61
2023/03/29 14:14:45;;;;;;;4.68;2.65;;;;;;;;;;5004545;28;20030;-61
2023/03/29 14:17:19;;;;;;;4.57;2.38;;;;;;;;;;5000860;28;20053;-61
2023/03/29 14:19:46;;;;;;;3.30;1.92;;;;;;;;;;5002914;28;20034;-61
2023/03/29 14:22:15;;;;;;;2.88;1.77;;;;;;;;;;5000659;28;20054;-61
2023/03/29 14:24:50;;;;;;;4.95;1.70;;;;;;;;;;4998619;28;20508;-61
2023/03/29 14:27:17;;;;;;;4.25;1.83;;;;;;;;;;5001145;28;20037;-59
2023/03/29 14:29:46;;;;;;;4.53;1.77;;;;;;;;;;4996190;28;20034;-61
2023/03/29 14:32:18;;;;;;;3.88;1.65;;;;;;;;;;5007223;28;20042;-60
2023/03/29 14:34:48;;;;;;;4.97;1.60;;;;;;;;;;4999107;28;20139;-61
2023/03/29 14:37:24;;;;;;;3.15;2.05;;;;;;;;;;5003504;28;20045;-62
2023/03/29 14:39:50;;;;;;;5.28;3.88;;;;;;;;;;5004855;28;20058;-60
2023/03/29 14:42:22;;;;;;;5.30;4.57;;;;;;;;;;5001220;28;20337;-59
2023/03/29 14:44:49;;;;;;;3.50;2.00;;;;;;;;;;4988975;28;20042;-59
2023/03/29 14:47:30;;;;;;;3.05;1.58;;;;;;;;;;5005824;28;20046;-61
2023/03/29 14:50:00;;;;;;;3.55;1.80;;;;;;;;;;5007104;28;20053;-62
2023/03/29 14:52:29;;;;;;;2.95;2.00;;;;;;;;;;5004117;28;20038;-63
2023/03/29 14:54:58;;;;;;;2.57;1.50;;;;;;;;;;5004380;28;20034;-62
2023/03/29 14:57:27;;;;;;;3.92;1.50;;;;;;;;;;5004450;28;20097;-60
2023/03/29 14:59:58;;;;;;;2.85;1.63;;;;;;;;;;5001836;28;20038;-61
2023/03/29 15:02:30;;;;;;;7.10;4.07;;;;;;;;;;5007084;28;20038;-60
2023/03/29 15:05:03;;;;;;;5.40;1.80;;;;;;;;;;5007758;28;20057;-60
2023/03/29 15:07:35;;;;;;;4.22;1.65;;;;;;;;;;5006728;28;20403;-60
2023/03/29 15:10:07;;;;;;;3.95;1.35;;;;;;;;;;5005746;28;20034;-60
2023/03/29 15:12:34;;;;;;;2.05;1.70;;;;;;;;;;5007812;28;20053;-61
2023/03/29 15:15:01;;;;;;;3.83;1.48;;;;;;;;;;5004947;28;20041;-60
2023/03/29 15:17:46;;;;;;;5.25;1.90;;;;;;;;;;5006817;28;20038;-60
2023/03/29 15:20:20;;;;;;;3.63;1.67;;;;;;;;;;5000664;28;20057;-60
2023/03/29 15:23:01;;;;;;;2.00;1.40;;;;;;;;;;5006453;28;20388;-61
2023/03/29 15:25:52;;;;;;;2.08;1.38;;;;;;;;;;4998253;28;20042;-60
2023/03/29 15:28:27;;;;;;;4.10;1.45;;;;;;;;;;4998980;28;20030;-60
2023/03/29 15:31:31;;;;;;;4.10;1.38;;;;;;;;;;5008261;28;20047;-61
2023/03/29 15:34:12;;;;;;;2.70;1.40;;;;;;;;;;5007845;28;20129;-61